createdAt,value
2023-04-08T00:01:33.731Z,12.70
2023-04-08T00:06:35.724Z,13.27
2023-04-08T00:11:38.045Z,13.63
2023-04-08T00:16:44.830Z,12.40
2023-04-08T00:21:51.281Z,13.03
2023-04-08T00:26:56.526Z,12.27
2023-04-08T00:32:04.058Z,12.87
2023-04-08T00:37:05.727Z,12.47
2023-04-08T00:42:07.512Z,11.63
2023-04-08T00:47:16.207Z,11.53
2023-04-08T00:52:18.001Z,10.80
2023-04-08T00:57:21.932Z,11.13
2023-04-08T01:02:35.320Z,11.20
2023-04-08T01:07:38.644Z,11.20
2023-04-08T01:12:49.654Z,11.43
2023-04-08T01:17:56.342Z,10.53
2023-04-08T01:23:00.857Z,10.43
2023-04-08T01:28:13.746Z,12.07
2023-04-08T01:33:18.850Z,10.93
2023-04-08T01:38:21.653Z,12.07
2023-04-08T01:43:24.582Z,9.83
2023-04-08T01:48:27.340Z,10.50
2023-04-08T01:53:29.013Z,10.53
2023-04-08T01:58:35.269Z,10.93
2023-04-08T02:03:37.813Z,10.70
2023-04-08T02:08:39.584Z,10.20
2023-04-08T02:13:46.615Z,10.57
2023-04-08T02:18:58.593Z,11.00
2023-04-08T02:24:04.646Z,10.60
2023-04-08T02:29:13.677Z,11.47
2023-04-08T02:34:19.112Z,11.83
2023-04-08T02:39:21.107Z,10.80
2023-04-08T02:44:24.874Z,12.80
2023-04-08T02:49:26.581Z,12.40
2023-04-08T02:54:30.688Z,13.93
2023-04-08T02:59:37.715Z,14.93
2023-04-08T03:04:44.105Z,14.00
2023-04-08T03:09:46.160Z,13.70
2023-04-08T03:14:50.346Z,14.17
2023-04-08T03:19:54.473Z,15.03
2023-04-08T03:24:56.387Z,14.40
2023-04-08T03:30:00.312Z,14.57
2023-04-08T03:35:10.480Z,14.80
2023-04-08T03:40:12.808Z,15.27
2023-04-08T03:45:14.474Z,16.40
2023-04-08T03:50:16.145Z,16.03
2023-04-08T03:55:18.229Z,16.13
2023-04-08T04:00:24.542Z,16.00
2023-04-08T04:05:26.216Z,17.53
2023-04-08T04:10:27.874Z,16.77
2023-04-08T04:15:35.098Z,17.27
2023-04-08T04:20:40.532Z,18.90
2023-04-08T04:25:42.620Z,20.23
2023-04-08T04:30:44.356Z,18.83
2023-04-08T04:35:50.906Z,17.87
2023-04-08T04:40:52.810Z,18.33
2023-04-08T04:45:54.826Z,17.83
2023-04-08T04:50:57.632Z,17.80
2023-04-08T04:56:02.215Z,22.30
2023-04-08T05:01:06.280Z,21.70
2023-04-08T05:06:07.998Z,18.03
2023-04-08T05:11:12.952Z,19.37
2023-04-08T05:16:19.370Z,18.20
2023-04-08T05:21:24.023Z,21.33
2023-04-08T05:26:26.370Z,24.83
2023-04-08T05:31:31.123Z,21.47
2023-04-08T05:36:35.343Z,20.93
2023-04-08T05:41:37.014Z,20.07
2023-04-08T05:46:38.873Z,19.23
2023-04-08T05:51:40.569Z,19.13
2023-04-08T05:56:42.262Z,19.50
2023-04-08T06:01:48.558Z,19.60
2023-04-08T06:06:52.737Z,21.17
2023-04-08T06:11:54.430Z,20.67
2023-04-08T06:16:58.591Z,20.87
2023-04-08T06:22:00.356Z,21.30
2023-04-08T06:27:04.445Z,19.97
2023-04-08T06:32:08.632Z,18.67
2023-04-08T06:37:12.837Z,18.87
2023-04-08T06:42:14.509Z,17.00
2023-04-08T06:47:36.659Z,16.97
2023-04-08T06:52:38.426Z,16.43
2023-04-08T06:57:42.598Z,15.83
2023-04-08T07:02:46.613Z,16.57
2023-04-08T07:07:53.041Z,16.03
2023-04-08T07:12:54.922Z,15.83
2023-04-08T07:17:57.178Z,16.70
2023-04-08T07:23:02.043Z,15.57
2023-04-08T07:28:06.474Z,16.17
2023-04-08T07:33:08.247Z,16.30
2023-04-08T07:38:14.805Z,15.73
2023-04-08T07:43:21.690Z,15.33
2023-04-08T07:48:25.754Z,16.53
2023-04-08T07:53:30.172Z,15.27
2023-04-08T07:58:34.187Z,15.77
2023-04-08T08:03:39.510Z,15.43
2023-04-08T08:08:43.703Z,14.90
2023-04-08T08:13:48.043Z,15.83
2023-04-08T08:18:52.958Z,15.07
2023-04-08T08:23:57.062Z,16.53
2023-04-08T08:28:58.888Z,15.50
2023-04-08T08:34:00.825Z,15.40
2023-04-08T08:39:04.852Z,15.30
2023-04-08T08:44:07.732Z,15.00
2023-04-08T08:49:09.484Z,15.77
2023-04-08T08:54:11.327Z,16.63
2023-04-08T08:59:15.652Z,15.97
2023-04-08T09:04:20.480Z,16.53
2023-04-08T09:25:24.713Z,19.98
2023-04-08T09:30:29.937Z,19.40
2023-04-08T09:35:31.718Z,18.77
2023-04-08T09:40:36.425Z,20.93
2023-04-08T09:45:41.597Z,18.98
2023-04-08T09:50:44.892Z,18.60
2023-04-08T09:55:51.317Z,18.73
2023-04-08T10:00:54.908Z,17.63
2023-04-08T10:06:00.170Z,18.15
2023-04-08T10:11:02.091Z,18.35
2023-04-08T10:16:25.368Z,16.50
2023-04-08T10:21:50.207Z,16.97
2023-04-08T10:26:51.982Z,15.33
2023-04-08T10:31:53.963Z,16.05
2023-04-08T10:36:59.092Z,16.33
2023-04-08T10:42:02.668Z,16.10
2023-04-08T10:47:04.724Z,16.17
2023-04-08T10:52:09.678Z,16.35
2023-04-08T10:57:11.446Z,18.00
2023-04-08T11:02:14.800Z,16.30
2023-04-08T11:07:21.195Z,18.95
2023-04-08T11:12:25.746Z,17.55
2023-04-08T11:17:30.434Z,18.48
2023-04-08T11:22:34.540Z,18.55
2023-04-08T11:27:36.745Z,18.48
2023-04-08T11:32:39.028Z,19.33
2023-04-08T11:37:42.057Z,17.48
2023-04-08T11:42:47.208Z,18.70
2023-04-08T11:47:49.204Z,17.50
2023-04-08T11:52:53.680Z,18.17
2023-04-08T11:58:03.318Z,17.65
2023-04-08T12:03:09.694Z,18.23
2023-04-08T12:08:11.654Z,18.15
2023-04-08T12:13:13.352Z,18.35
2023-04-08T12:18:15.021Z,16.30
2023-04-08T12:23:16.894Z,16.13
2023-04-08T12:28:18.583Z,16.08
2023-04-08T12:33:20.639Z,16.67
2023-04-08T12:38:22.394Z,16.48
2023-04-08T12:43:24.569Z,16.05
2023-04-08T12:48:28.535Z,15.98
2023-04-08T12:53:30.422Z,17.15
2023-04-08T12:58:32.144Z,18.02
2023-04-08T13:03:35.496Z,16.80
2023-04-08T13:08:37.470Z,16.58
2023-04-08T13:13:39.411Z,15.93
2023-04-08T13:18:41.546Z,16.30
2023-04-08T13:23:43.339Z,16.00
2023-04-08T13:33:52.306Z,14.00
2023-04-08T13:38:57.509Z,16.37
2023-04-08T13:43:59.745Z,14.93
2023-04-08T13:49:03.191Z,14.30
2023-04-08T13:54:05.127Z,15.25
2023-04-08T13:59:07.338Z,14.65
2023-04-08T14:04:12.025Z,14.07
2023-04-08T14:09:16.084Z,13.77
2023-04-08T14:14:17.807Z,13.27
2023-04-08T14:19:19.697Z,14.00
2023-04-08T14:24:23.588Z,13.70
2023-04-08T14:29:26.635Z,13.30
2023-04-08T14:34:29.541Z,13.77
2023-04-08T14:39:31.255Z,13.40
2023-04-08T14:44:33.081Z,14.23
2023-04-08T14:49:34.786Z,14.23
2023-04-08T14:54:39.537Z,15.02
2023-04-08T14:59:41.246Z,14.48
2023-04-08T15:04:43.181Z,15.75
2023-04-08T15:09:44.948Z,16.02
2023-04-08T15:14:46.650Z,15.73
2023-04-08T15:19:51.005Z,15.23
2023-04-08T15:24:55.405Z,16.23
2023-04-08T15:29:57.271Z,17.20
2023-04-08T15:34:59.632Z,18.35
2023-04-08T15:40:06.172Z,17.00
2023-04-08T15:45:08.680Z,17.95
2023-04-08T15:50:11.085Z,16.25
2023-04-08T15:55:13.036Z,15.82
2023-04-08T16:00:16.648Z,17.63
2023-04-08T16:05:21.083Z,17.38
2023-04-08T16:10:22.861Z,18.15
2023-04-08T16:15:24.604Z,17.55
2023-04-08T16:20:27.801Z,16.67
2023-04-08T16:25:30.365Z,18.33
2023-04-08T16:30:32.165Z,15.75
2023-04-08T16:35:36.449Z,17.50
2023-04-08T16:40:39.216Z,18.90
2023-04-08T16:45:43.997Z,19.50
2023-04-08T16:50:46.078Z,18.45
2023-04-08T16:55:50.251Z,18.98
2023-04-08T17:00:54.407Z,18.27
2023-04-08T17:06:12.170Z,21.08
2023-04-08T17:11:15.078Z,19.98
2023-04-08T17:16:18.040Z,19.88
2023-04-08T17:21:20.349Z,24.50
2023-04-08T17:26:23.461Z,22.85
2023-04-08T17:31:27.721Z,18.87
2023-04-08T17:36:31.984Z,17.40
2023-04-08T17:41:40.484Z,18.67
2023-04-08T17:46:43.115Z,18.65
2023-04-08T17:51:47.384Z,18.70
2023-04-08T17:56:49.637Z,19.30
2023-04-08T18:01:53.862Z,17.73
2023-04-08T18:06:56.611Z,22.33
2023-04-08T18:11:58.328Z,20.80
2023-04-08T18:17:00.288Z,20.58
2023-04-08T18:22:04.562Z,20.97
2023-04-08T18:27:06.410Z,20.95
2023-04-08T18:32:08.236Z,19.80
2023-04-08T18:37:11.142Z,22.05
2023-04-08T18:42:12.840Z,22.25
2023-04-08T18:47:14.648Z,22.48
2023-04-08T18:52:16.438Z,22.60
2023-04-08T18:57:18.225Z,24.60
2023-04-08T19:02:22.847Z,26.95
2023-04-08T19:07:27.821Z,32.28
2023-04-08T19:12:29.706Z,30.43
2023-04-08T19:17:33.682Z,30.60
2023-04-08T19:22:35.596Z,36.00
2023-04-08T19:27:37.618Z,42.00
2023-04-08T19:32:39.421Z,41.80
2023-04-08T19:37:43.459Z,43.17
2023-04-08T19:42:47.430Z,42.17
2023-04-08T19:47:49.388Z,42.60
2023-04-08T19:52:51.312Z,43.50
2023-04-08T19:57:54.021Z,43.70
2023-04-08T20:02:56.204Z,40.47
2023-04-08T20:07:59.076Z,40.73
2023-04-08T20:13:00.837Z,40.67
2023-04-08T20:18:02.675Z,43.13
2023-04-08T20:23:04.486Z,44.13
2023-04-08T20:28:06.237Z,44.93
2023-04-08T20:33:10.426Z,48.37
2023-04-08T20:38:14.679Z,45.00
2023-04-08T20:43:16.882Z,49.13
2023-04-08T20:48:18.603Z,52.23
2023-04-08T20:53:23.741Z,50.33
2023-04-08T20:58:26.022Z,45.63
2023-04-08T21:03:27.935Z,46.47
2023-04-08T21:08:34.367Z,46.47
2023-04-08T21:13:36.052Z,43.20
2023-04-08T21:18:38.929Z,42.87
2023-04-08T21:23:42.986Z,41.87
2023-04-08T21:28:47.337Z,48.57
2023-04-08T21:33:51.160Z,52.90
2023-04-08T21:38:56.205Z,57.33
2023-04-08T21:43:58.240Z,55.10
2023-04-08T21:49:02.302Z,56.37
2023-04-08T21:54:06.421Z,53.27
2023-04-08T21:59:10.613Z,58.83
2023-04-08T22:04:12.432Z,58.23
2023-04-08T22:09:16.737Z,60.30
2023-04-08T22:14:20.827Z,60.70
2023-04-08T22:19:22.719Z,60.73
2023-04-08T22:24:24.449Z,57.87
2023-04-08T22:29:26.173Z,60.80
2023-04-08T22:34:27.859Z,59.90
2023-04-08T22:39:29.515Z,64.40
2023-04-08T22:44:31.304Z,68.23
2023-04-08T22:49:33.013Z,69.70
2023-04-08T22:54:37.759Z,68.80
2023-04-08T22:59:41.601Z,66.30
2023-04-08T23:04:48.245Z,65.17
2023-04-08T23:09:49.974Z,63.63
2023-04-08T23:14:51.689Z,63.10
2023-04-08T23:19:58.216Z,64.63
2023-04-08T23:25:02.525Z,63.53
2023-04-08T23:30:07.483Z,64.57
2023-04-08T23:35:13.960Z,62.93
2023-04-08T23:40:18.192Z,65.60
2023-04-08T23:45:19.890Z,65.20
2023-04-08T23:50:23.066Z,61.70
2023-04-08T23:55:26.906Z,65.60
